Terminal Aerodrome Forecast
Issued by NWS

Current Version | Previous Version | Text Only | Print | Product List | Glossary On
Versions: 1 2 3 4 5 6 7 8 9 10 11 12 13 14 15 16 17 18
000
FTUS41 KILN 191120
TAFLUK
TAF
KLUK 191120Z 1912/2012 00000KT P6SM VCSH BKN110
     FM191400 23006KT P6SM SCT090
     FM192000 27007KT P6SM SCT050
     FM200700 00000KT 3SM BR FEW250=

USA.gov is the U.S. government's official web portal to all federal, state and local government web resources and services.